Time;durP1;ratioP1;P1;durP2;ratioP2;P2;SDS_P1;SDS_P2;PMS_P1;PMS_P2;Temp;Humidity;BMP_temperature;BMP_pressure;BME280_temperature;BME280_humidity;BME280_pressure;Samples;Min_cycle;Max_cycle;Signal;HPM_P1;HPM_P2
2024/04/22 00:02:01;;;;;;;1.10;1.10;;;;;;;1.99;90.11;98897.09;6377881;22;20388;-86
2024/04/22 00:04:26;;;;;;;1.02;1.02;;;;;;;2.14;88.03;98900.72;6422512;22;20358;-86
2024/04/22 00:06:53;;;;;;;1.10;1.10;;;;;;;2.05;88.48;98897.47;6376913;22;20012;-85
2024/04/22 00:09:18;;;;;;;1.10;1.10;;;;;;;1.98;89.09;98898.81;6378938;22;20002;-86
2024/04/22 00:11:44;;;;;;;1.00;1.00;;;;;;;2.07;87.39;98898.50;6421872;22;20010;-86
2024/04/22 00:14:12;;;;;;;1.00;1.00;;;;;;;1.89;89.30;98907.81;6421876;22;19994;-87
2024/04/22 00:16:39;;;;;;;1.00;1.00;;;;;;;1.84;88.52;98906.63;6378599;22;20009;-87
2024/04/22 00:19:04;;;;;;;1.10;1.10;;;;;;;1.75;89.77;98906.91;6337724;22;20002;-86
2024/04/22 00:21:30;;;;;;;1.00;1.00;;;;;;;1.93;87.75;98892.34;6376593;22;20035;-85
2024/04/22 00:23:56;;;;;;;1.10;1.10;;;;;;;2.13;86.40;98900.63;6421183;22;20022;-85
2024/04/22 00:26:21;;;;;;;1.00;1.00;;;;;;;2.18;86.63;98894.84;6420712;22;20010;-86
2024/04/22 00:28:47;;;;;;;1.02;1.02;;;;;;;2.12;87.18;98896.19;6378714;22;20067;-85
2024/04/22 00:31:12;;;;;;;1.10;1.10;;;;;;;1.93;88.23;98899.34;6377457;22;20309;-84
2024/04/22 00:33:38;;;;;;;1.10;1.10;;;;;;;1.78;89.50;98899.25;6377417;22;20002;-85
2024/04/22 00:36:03;;;;;;;1.10;1.10;;;;;;;1.80;89.98;98902.88;6336936;22;20069;-85
2024/04/22 00:38:29;;;;;;;1.10;1.10;;;;;;;1.93;87.91;98896.69;6421073;22;19994;-84
2024/04/22 00:40:55;;;;;;;1.00;1.00;;;;;;;1.89;88.72;98887.69;6378708;22;19994;-85
2024/04/22 00:43:21;;;;;;;1.00;1.00;;;;;;;1.79;89.13;98888.81;6379329;22;19998;-84
2024/04/22 00:45:46;;;;;;;0.90;0.90;;;;;;;1.92;86.80;98881.72;6380321;22;20039;-86
2024/04/22 00:48:15;;;;;;;1.10;1.10;;;;;;;2.08;86.29;98884.53;6424087;22;20696;-86
2024/04/22 00:50:42;;;;;;;1.10;1.10;;;;;;;2.22;84.88;98890.69;6381335;22;19998;-85
2024/04/22 00:53:09;;;;;;;1.10;1.10;;;;;;;2.21;85.49;98892.41;6380271;22;20432;-85
2024/04/22 00:55:36;;;;;;;1.00;1.00;;;;;;;2.08;85.15;98887.16;6340370;22;20006;-86
2024/04/22 00:58:04;;;;;;;1.10;1.10;;;;;;;2.09;84.39;98891.59;6379860;22;20079;-85
2024/04/22 01:00:30;;;;;;;1.10;1.10;;;;;;;2.05;85.60;98893.13;6422590;22;20002;-86
2024/04/22 01:02:56;;;;;;;1.10;1.10;;;;;;;2.01;84.91;98895.44;6337221;22;20386;-86
2024/04/22 01:05:22;;;;;;;1.10;1.10;;;;;;;2.14;85.06;98890.19;6379512;22;19995;-87
2024/04/22 01:07:47;;;;;;;1.02;1.02;;;;;;;2.21;83.61;98891.50;6379120;22;20017;-87
2024/04/22 01:10:13;;;;;;;1.10;1.10;;;;;;;2.23;84.29;98889.88;6354633;22;20006;-88
2024/04/22 01:12:39;;;;;;;1.00;1.00;;;;;;;2.08;84.91;98895.06;6436801;22;19994;-87
2024/04/22 01:15:05;;;;;;;1.02;1.02;;;;;;;2.10;84.57;98897.78;6396817;22;20007;-86
2024/04/22 01:17:41;;;;;;;1.10;1.10;;;;;;;2.18;82.31;98892.19;6397996;22;19998;-87
2024/04/22 01:20:09;;;;;;;1.10;1.10;;;;;;;2.18;82.00;98892.19;6435054;22;20002;-87
2024/04/22 01:22:34;;;;;;;1.00;1.00;;;;;;;2.24;81.74;98879.44;6437112;22;20263;-87
2024/04/22 01:25:01;;;;;;;1.10;1.10;;;;;;;2.26;81.46;98877.81;6351863;22;19998;-85
2024/04/22 01:27:30;;;;;;;1.10;1.10;;;;;;;2.24;82.18;98879.44;6434754;22;20069;-86
2024/04/22 01:29:56;;;;;;;1.00;1.00;;;;;;;2.34;80.82;98877.38;6427709;22;19995;-86
2024/04/22 01:32:23;;;;;;;1.10;1.10;;;;;;;2.40;79.06;98869.91;6377119;22;20072;-87
2024/04/22 01:34:49;;;;;;;1.10;1.10;;;;;;;2.34;79.87;98873.03;6337714;22;20047;-86
2024/04/22 01:37:14;;;;;;;1.10;1.10;;;;;;;2.28;81.67;98870.91;6379330;22;20034;-85
2024/04/22 01:39:41;;;;;;;1.02;1.02;;;;;;;2.41;80.77;98869.06;6422338;22;20382;-86
2024/04/22 01:42:08;;;;;;;1.10;1.10;;;;;;;2.34;80.42;98872.13;6423946;22;20002;-86
2024/04/22 01:44:35;;;;;;;1.10;1.10;;;;;;;2.30;81.42;98876.31;6378740;22;20074;-85
2024/04/22 01:47:01;;;;;;;1.10;1.10;;;;;;;2.36;81.44;98876.69;6377960;22;20002;-86
2024/04/22 01:49:27;;;;;;;1.00;1.00;;;;;;;2.26;82.55;98871.66;6378377;22;19998;-87
2024/04/22 01:51:52;;;;;;;1.10;1.10;;;;;;;2.24;81.35;98873.25;6380673;22;20018;-87
2024/04/22 01:54:18;;;;;;;1.00;1.00;;;;;;;2.21;81.94;98876.63;6338017;22;20022;-87
2024/04/22 01:56:45;;;;;;;1.10;1.10;;;;;;;2.24;81.44;98871.53;6422874;22;20014;-86
2024/04/22 01:59:10;;;;;;;1.00;1.00;;;;;;;2.28;81.10;98875.28;6379392;22;20026;-87
2024/04/22 02:01:36;;;;;;;1.10;1.10;;;;;;;2.28;81.59;98873.53;6378731;22;20215;-86
2024/04/22 02:04:01;;;;;;;1.10;1.10;;;;;;;2.20;83.39;98876.50;6377975;22;20012;-86
2024/04/22 02:06:26;;;;;;;1.05;1.05;;;;;;;2.36;81.06;98873.13;6416856;22;20317;-87
2024/04/22 02:08:52;;;;;;;1.10;1.10;;;;;;;2.36;82.02;98875.78;6417361;22;20006;-86
2024/04/22 02:11:18;;;;;;;1.00;1.00;;;;;;;2.31;81.05;98868.50;6415811;22;19995;-87
2024/04/22 02:13:43;;;;;;;1.10;1.10;;;;;;;2.31;80.52;98876.38;6418738;22;19998;-87
2024/04/22 02:16:09;;;;;;;1.10;1.10;;;;;;;2.17;81.99;98874.59;6416088;22;19998;-87
2024/04/22 02:18:34;;;;;;;1.10;1.10;;;;;;;2.15;81.13;98878.84;6372154;22;20034;-87
2024/04/22 02:20:59;;;;;;;1.08;1.08;;;;;;;2.18;81.63;98873.78;6331039;22;19995;-87
2024/04/22 02:23:25;;;;;;;1.00;1.00;;;;;;;2.24;81.56;98871.53;6372317;22;20030;-87
2024/04/22 02:25:50;;;;;;;1.10;1.10;;;;;;;2.34;81.32;98861.59;6332360;22;19995;-86
2024/04/22 02:28:16;;;;;;;1.08;1.08;;;;;;;2.26;80.81;98869.91;6417659;22;20504;-87
2024/04/22 02:30:41;;;;;;;1.10;1.10;;;;;;;2.26;80.31;98872.56;6373833;22;20076;-87
2024/04/22 02:33:08;;;;;;;1.00;1.00;;;;;;;2.17;81.18;98866.69;6332992;22;20010;-87
2024/04/22 02:35:36;;;;;;;1.10;1.10;;;;;;;2.23;80.07;98864.44;6375623;22;20336;-86
2024/04/22 02:38:02;;;;;;;1.10;1.10;;;;;;;2.30;80.71;98871.94;6375265;22;19998;-86
2024/04/22 02:40:28;;;;;;;1.05;1.05;;;;;;;2.27;79.16;98873.47;6419384;22;20047;-86
2024/04/22 02:42:54;;;;;;;1.00;1.00;;;;;;;2.35;78.40;98871.28;6419393;22;20050;-85
2024/04/22 02:45:24;;;;;;;1.10;1.10;;;;;;;2.24;80.02;98868.00;6419150;22;20007;-87
2024/04/22 02:47:50;;;;;;;1.10;1.10;;;;;;;2.28;80.12;98867.38;6376332;22;19998;-87
2024/04/22 02:50:15;;;;;;;1.10;1.10;;;;;;;2.12;81.24;98869.84;6336034;22;20002;-86
2024/04/22 02:52:41;;;;;;;1.05;1.05;;;;;;;2.20;79.41;98871.22;6336011;22;20006;-85
2024/04/22 02:55:06;;;;;;;1.10;1.10;;;;;;;2.14;80.93;98869.13;6378160;22;20397;-86
2024/04/22 02:57:32;;;;;;;1.00;1.00;;;;;;;2.05;83.21;98877.34;6377523;22;20016;-87
2024/04/22 02:59:57;;;;;;;1.10;1.10;;;;;;;2.12;80.94;98878.66;6337321;22;20014;-88
2024/04/22 03:02:23;;;;;;;1.10;1.10;;;;;;;2.35;79.55;98873.94;6421981;22;20321;-87
2024/04/22 03:04:49;;;;;;;1.00;1.00;;;;;;;2.28;80.19;98876.19;6421512;22;20006;-88
2024/04/22 03:07:14;;;;;;;1.00;1.00;;;;;;;2.33;79.09;98883.47;6337133;22;20026;-87
2024/04/22 03:09:42;;;;;;;1.00;1.00;;;;;;;2.35;79.06;98874.88;6378119;22;20349;-91
2024/04/22 03:12:14;;;;;;;1.00;1.00;;;;;;;2.21;78.44;98876.63;6379005;22;20103;-88
2024/04/22 03:14:40;;;;;;;1.10;1.10;;;;;;;2.26;80.27;98884.81;6378275;22;20077;-88
2024/04/22 03:17:05;;;;;;;1.00;1.00;;;;;;;2.18;78.31;98878.13;6420816;22;20007;-86
2024/04/22 03:19:31;;;;;;;1.10;1.10;;;;;;;2.03;79.58;98881.59;6334840;22;19998;-87
2024/04/22 03:21:56;;;;;;;1.00;1.00;;;;;;;2.05;79.61;98876.44;6420046;22;19998;-87
2024/04/22 03:24:23;;;;;;;1.10;1.10;;;;;;;1.95;81.78;98887.16;6376821;22;20081;-88
2024/04/22 03:26:49;;;;;;;1.02;1.02;;;;;;;1.90;80.58;98873.72;6375774;22;20013;-87
2024/04/22 03:29:16;;;;;;;1.00;1.00;;;;;;;1.92;81.01;98876.47;6419086;22;20289;-88
2024/04/22 03:31:42;;;;;;;1.05;1.05;;;;;;;1.71;80.65;98876.88;6374057;22;20385;-89
2024/04/22 03:34:08;;;;;;;1.10;1.10;;;;;;;1.68;80.15;98875.78;6333105;22;20006;-87
2024/04/22 03:36:33;;;;;;;1.10;1.10;;;;;;;1.41;81.85;98873.13;6373985;22;20070;-87
2024/04/22 03:38:59;;;;;;;1.10;1.10;;;;;;;1.35;81.44;98867.47;6418733;22;20002;-87
2024/04/22 03:41:27;;;;;;;1.10;1.10;;;;;;;1.21;82.97;98877.03;6421016;22;20002;-87
2024/04/22 03:43:55;;;;;;;1.08;1.08;;;;;;;1.00;82.22;98871.22;6338114;22;20009;-88
2024/04/22 03:51:48;;;;;;;1.10;1.10;;;;;;;0.50;85.09;98876.50;6378815;22;19994;-87
2024/04/22 03:54:14;;;;;;;1.10;1.10;;;;;;;0.52;85.37;98887.13;6422056;22;19999;-89
2024/04/22 03:56:40;;;;;;;1.10;1.10;;;;;;;0.62;84.16;98879.06;6378650;22;19995;-87
2024/04/22 03:59:05;;;;;;;1.10;1.10;;;;;;;0.50;84.08;98881.75;6378465;22;20007;-88
2024/04/22 04:01:31;;;;;;;1.10;1.10;;;;;;;0.49;84.30;98879.94;6422697;22;20002;-87
2024/04/22 04:03:58;;;;;;;1.02;1.02;;;;;;;0.42;84.56;98872.44;6338009;22;19998;-87
2024/04/22 04:06:23;;;;;;;1.10;1.10;;;;;;;0.25;84.66;98876.50;6338658;22;20398;-87
2024/04/22 04:08:49;;;;;;;1.10;1.10;;;;;;;0.20;85.37;98871.72;6338234;22;20073;-87
2024/04/22 04:11:16;;;;;;;1.10;1.10;;;;;;;0.02;85.39;98879.19;6337017;22;20002;-88
2024/04/22 04:13:45;;;;;;;1.10;1.10;;;;;;;0.29;85.17;98881.94;6421739;22;20073;-87
2024/04/22 04:16:11;;;;;;;1.10;1.10;;;;;;;0.01;85.90;98877.38;6380724;22;20073;-87
2024/04/22 04:18:41;;;;;;;1.10;1.10;;;;;;;-0.27;87.48;98872.72;6423948;22;20007;-87
2024/04/22 04:21:06;;;;;;;1.00;1.00;;;;;;;-0.09;87.72;98880.13;6339474;22;20410;-86
2024/04/22 04:23:32;;;;;;;1.10;1.10;;;;;;;-0.38;88.70;98881.53;6380874;22;19998;-87
2024/04/22 04:25:58;;;;;;;1.10;1.10;;;;;;;-0.35;88.76;98886.97;6380753;22;20013;-87
2024/04/22 04:28:24;;;;;;;1.10;1.10;;;;;;;-0.19;88.07;98888.09;6339484;22;19998;-87
2024/04/22 04:30:56;;;;;;;1.10;1.10;;;;;;;-0.05;86.94;98883.09;6380492;22;20013;-86
2024/04/22 04:33:22;;;;;;;1.10;1.10;;;;;;;-0.23;86.98;98875.59;6424211;22;20075;-87
2024/04/22 04:36:04;;;;;;;1.10;1.10;;;;;;;-0.27;86.41;98885.84;6381262;22;20733;-87
2024/04/22 04:38:31;;;;;;;1.10;1.10;;;;;;;-0.13;86.65;98880.69;6339968;22;20300;-87
2024/04/22 04:40:56;;;;;;;1.00;1.00;;;;;;;-0.19;87.01;98875.94;6382365;22;19999;-88
2024/04/22 04:43:23;;;;;;;1.10;1.10;;;;;;;-0.02;84.45;98882.38;6427493;22;20026;-87
2024/04/22 04:45:49;;;;;;;1.10;1.10;;;;;;;-0.13;85.75;98878.06;6424420;22;20003;-87
2024/04/22 04:48:15;;;;;;;1.10;1.10;;;;;;;-0.07;85.65;98894.25;6339651;22;20072;-88
2024/04/22 04:50:40;;;;;;;1.10;1.10;;;;;;;-0.06;85.72;98883.84;6339653;22;20009;-87
2024/04/22 04:53:06;;;;;;;1.10;1.10;;;;;;;0.03;86.40;98885.34;6339850;22;20002;-87
2024/04/22 04:55:32;;;;;;;1.10;1.10;;;;;;;0.18;85.95;98892.59;6340137;22;20029;-88
2024/04/22 04:57:58;;;;;;;1.10;1.10;;;;;;;0.32;84.45;98896.19;6340027;22;20010;-88
2024/04/22 05:00:24;;;;;;;1.10;1.10;;;;;;;0.51;82.89;98891.44;6381281;22;20030;-86
2024/04/22 05:02:51;;;;;;;1.10;1.10;;;;;;;0.67;82.73;98892.53;6344321;22;20002;-87
2024/04/22 05:05:17;;;;;;;1.10;1.10;;;;;;;0.78;82.71;98894.22;6382800;22;20013;-88
2024/04/22 05:07:42;;;;;;;1.10;1.10;;;;;;;1.00;81.64;98884.34;6421324;22;20002;-86
2024/04/22 05:10:10;;;;;;;1.10;1.10;;;;;;;1.12;78.96;98892.19;6418573;22;20630;-87
2024/04/22 05:12:36;;;;;;;1.10;1.10;;;;;;;1.17;76.01;98896.03;6418812;22;20002;-85
2024/04/22 05:15:02;;;;;;;1.10;1.10;;;;;;;1.30;76.90;98889.00;6374241;22;20081;-88
2024/04/22 05:17:27;;;;;;;1.10;1.10;;;;;;;1.39;77.35;98889.59;6333867;22;19998;-87
2024/04/22 05:19:54;;;;;;;1.08;1.08;;;;;;;1.57;75.73;98889.91;6375237;22;20034;-87
2024/04/22 05:22:20;;;;;;;1.00;1.00;;;;;;;1.66;74.70;98894.06;6418315;22;20097;-88
2024/04/22 05:24:45;;;;;;;1.00;1.00;;;;;;;1.70;74.99;98898.72;6419596;22;19994;-87
2024/04/22 05:27:11;;;;;;;1.00;1.00;;;;;;;1.75;73.53;98904.28;6374988;22;20013;-89
2024/04/22 05:29:36;;;;;;;1.00;1.00;;;;;;;2.00;73.41;98893.63;6417916;22;20006;-88
2024/04/22 05:32:02;;;;;;;1.00;1.00;;;;;;;2.11;71.21;98889.06;6372535;22;20013;-88
2024/04/22 05:37:12;;;;;;;1.00;1.00;;;;;;;2.29;70.33;98899.06;6375062;22;20777;-87
2024/04/22 05:39:39;;;;;;;1.02;1.02;;;;;;;2.41;70.96;98904.22;6373668;22;20313;-86
2024/04/22 05:42:06;;;;;;;0.93;0.93;;;;;;;2.60;70.23;98910.63;6374936;22;20010;-87
2024/04/22 05:44:31;;;;;;;1.10;1.10;;;;;;;2.63;69.68;98906.44;6418655;22;20009;-86
2024/04/22 05:46:57;;;;;;;0.90;0.90;;;;;;;2.74;69.97;98902.78;6374883;22;19994;-87
2024/04/22 05:49:22;;;;;;;1.00;1.00;;;;;;;2.74;68.93;98897.53;6373893;22;20006;-86
2024/04/22 05:51:49;;;;;;;1.00;1.00;;;;;;;2.98;68.49;98899.84;6332864;22;19995;-88
2024/04/22 05:54:16;;;;;;;1.10;1.10;;;;;;;2.85;68.61;98906.06;6375222;22;20714;-88
2024/04/22 05:56:43;;;;;;;1.00;1.00;;;;;;;3.09;67.76;98902.31;6418585;22;20003;-88
2024/04/22 05:59:13;;;;;;;0.90;0.90;;;;;;;3.33;66.76;98902.88;6375711;22;20223;-88
2024/04/22 06:01:39;;;;;;;0.90;0.90;;;;;;;3.23;66.65;98907.50;6376047;22;19998;-87
2024/04/22 06:04:04;;;;;;;1.00;1.00;;;;;;;3.21;67.10;98914.41;6376151;22;20013;-87
2024/04/22 06:06:30;;;;;;;1.00;1.00;;;;;;;3.49;64.79;98909.97;6424978;22;20005;-86
2024/04/22 06:08:56;;;;;;;0.90;0.90;;;;;;;3.55;64.81;98910.34;6381637;22;19994;-88
2024/04/22 06:11:21;;;;;;;0.90;0.90;;;;;;;3.89;64.56;98914.97;6340212;22;20010;-87
2024/04/22 06:13:47;;;;;;;0.90;0.90;;;;;;;4.21;63.33;98908.88;6380877;22;20319;-87
2024/04/22 06:16:12;;;;;;;0.90;0.90;;;;;;;4.35;64.09;98917.56;6426176;22;20003;-87
2024/04/22 06:18:38;;;;;;;0.90;0.90;;;;;;;4.86;61.15;98905.44;6381399;22;20186;-87
2024/04/22 06:21:03;;;;;;;0.90;0.90;;;;;;;4.87;61.20;98905.50;6424145;22;20873;-88
2024/04/22 06:23:29;;;;;;;0.90;0.90;;;;;;;4.63;61.26;98906.81;6422592;22;19998;-88
2024/04/22 06:26:05;;;;;;;0.80;0.80;;;;;;;5.08;59.57;98910.16;6417123;22;20357;-88
2024/04/22 06:28:34;;;;;;;0.90;0.90;;;;;;;5.20;61.25;98909.88;6375043;22;20007;-87
2024/04/22 06:31:00;;;;;;;0.90;0.90;;;;;;;5.64;58.81;98898.94;6416077;22;20006;-88
2024/04/22 06:33:25;;;;;;;0.80;0.80;;;;;;;5.24;57.93;98904.84;6418139;22;20008;-88
2024/04/22 06:35:51;;;;;;;0.80;0.80;;;;;;;5.63;58.09;98900.69;6375177;22;20009;-88
2024/04/22 06:38:16;;;;;;;0.80;0.80;;;;;;;5.37;56.88;98896.72;6378211;22;20014;-89
2024/04/22 06:40:42;;;;;;;0.90;0.90;;;;;;;5.38;58.65;98906.47;6423052;22;20007;-89
2024/04/22 06:43:10;;;;;;;0.90;0.90;;;;;;;5.20;59.33;98905.50;6379403;22;20078;-89
2024/04/22 06:45:37;;;;;;;0.82;0.82;;;;;;;5.47;57.80;98902.50;6422579;22;20013;-89
2024/04/22 06:48:04;;;;;;;1.00;1.00;;;;;;;5.42;58.04;98907.53;6379151;22;20010;-89
2024/04/22 06:50:29;;;;;;;0.90;0.90;;;;;;;5.21;58.77;98903.75;6423637;22;20816;-87
2024/04/22 06:52:55;;;;;;;0.90;0.90;;;;;;;5.81;58.07;98900.72;6423658;22;20014;-88
2024/04/22 06:55:21;;;;;;;0.90;0.90;;;;;;;6.08;57.24;98900.31;6379466;22;19995;-89
2024/04/22 06:57:46;;;;;;;0.90;0.90;;;;;;;6.29;57.37;98893.41;6423033;22;19998;-90
2024/04/22 07:00:12;;;;;;;0.80;0.80;;;;;;;5.97;58.78;98896.22;6422770;22;20002;-88
2024/04/22 07:02:39;;;;;;;0.90;0.90;;;;;;;6.09;57.45;98908.34;6423187;22;20010;-88
2024/04/22 07:05:05;;;;;;;0.90;0.90;;;;;;;6.34;55.87;98910.44;6379611;22;19998;-89
2024/04/22 07:07:31;;;;;;;0.90;0.90;;;;;;;5.96;57.45;98913.84;6337785;22;20002;-89
2024/04/22 07:09:57;;;;;;;1.00;1.00;;;;;;;5.94;55.48;98906.66;6422310;22;20010;-88
2024/04/22 07:12:23;;;;;;;0.88;0.88;;;;;;;5.78;55.87;98919.09;6378670;22;19999;-88
2024/04/22 07:14:48;;;;;;;0.90;0.90;;;;;;;6.15;56.64;98926.28;6378174;22;20003;-89
2024/04/22 07:17:14;;;;;;;0.90;0.90;;;;;;;6.45;56.03;98925.94;6379730;22;20017;-90
2024/04/22 07:19:40;;;;;;;0.90;0.90;;;;;;;6.56;54.51;98917.66;6338754;22;20716;-89
2024/04/22 07:22:05;;;;;;;0.88;0.88;;;;;;;6.73;52.83;98922.88;6384311;22;20017;-90
2024/04/22 07:24:31;;;;;;;0.90;0.90;;;;;;;7.20;53.29;98917.13;6341346;22;19999;-89
2024/04/22 07:26:56;;;;;;;0.80;0.80;;;;;;;6.48;54.07;98907.56;6379700;22;20396;-88
2024/04/22 07:29:22;;;;;;;0.90;0.90;;;;;;;6.54;53.66;98915.78;6379386;22;20384;-88
2024/04/22 07:31:48;;;;;;;1.00;1.00;;;;;;;7.08;53.63;98906.84;6339100;22;20294;-88
2024/04/22 07:34:14;;;;;;;0.90;0.90;;;;;;;7.00;53.83;98912.66;6423353;22;19998;-90
2024/04/22 07:36:45;;;;;;;1.00;1.00;;;;;;;7.71;51.60;98909.63;6381269;22;20006;-91
2024/04/22 07:39:11;;;;;;;0.90;0.90;;;;;;;7.99;51.93;98903.75;6340145;22;20317;-88
2024/04/22 07:41:38;;;;;;;0.90;0.90;;;;;;;8.14;51.63;98904.38;6342325;22;19999;-89
2024/04/22 07:44:05;;;;;;;0.90;0.90;;;;;;;7.19;50.11;98908.25;6382847;22;20010;-91
2024/04/22 07:46:31;;;;;;;0.90;0.90;;;;;;;6.52;51.63;98912.19;6385463;22;20012;-90
2024/04/22 07:48:56;;;;;;;0.90;0.90;;;;;;;7.41;52.46;98910.09;6386723;22;20010;-92
2024/04/22 07:51:22;;;;;;;0.90;0.90;;;;;;;8.53;52.00;98905.97;6396232;22;20014;-89
2024/04/22 07:53:47;;;;;;;0.80;0.80;;;;;;;8.87;48.69;98898.47;6400971;22;19986;-88
2024/04/22 07:56:14;;;;;;;0.80;0.80;;;;;;;8.68;48.98;98895.94;6440039;22;19987;-88
2024/04/22 07:58:40;;;;;;;0.90;0.90;;;;;;;8.93;47.27;98904.03;6350218;22;19999;-88
2024/04/22 08:01:06;;;;;;;0.70;0.70;;;;;;;9.29;47.17;98894.69;6377475;22;20034;-87
2024/04/22 08:03:32;;;;;;;0.70;0.70;;;;;;;9.89;46.99;98893.31;6418564;22;19995;-88
2024/04/22 08:06:03;;;;;;;0.70;0.70;;;;;;;10.26;45.91;98890.16;6415193;22;19999;-86
2024/04/22 08:08:32;;;;;;;0.70;0.70;;;;;;;9.14;47.55;98887.94;6333668;22;20002;-87
2024/04/22 08:11:01;;;;;;;0.70;0.70;;;;;;;8.01;47.63;98907.38;6333372;22;19999;-87
2024/04/22 08:13:26;;;;;;;0.70;0.70;;;;;;;8.76;46.19;98901.56;6417256;22;20013;-87
2024/04/22 08:15:52;;;;;;;0.70;0.70;;;;;;;8.71;47.28;98906.69;6374934;22;20006;-89
2024/04/22 08:18:17;;;;;;;0.73;0.73;;;;;;;8.89;47.70;98903.84;6375751;22;20003;-88
2024/04/22 08:20:43;;;;;;;0.70;0.70;;;;;;;8.31;48.47;98904.19;6374655;22;20002;-88
2024/04/22 08:23:08;;;;;;;0.70;0.70;;;;;;;8.81;44.29;98907.97;6375600;22;20077;-86
2024/04/22 08:25:34;;;;;;;0.70;0.70;;;;;;;8.58;45.06;98905.31;6376636;22;20280;-87
2024/04/22 08:28:00;;;;;;;0.80;0.80;;;;;;;8.51;47.65;98912.97;6378131;22;19994;-88
2024/04/22 08:30:27;;;;;;;0.80;0.80;;;;;;;8.67;45.00;98910.06;6377148;22;20401;-89
2024/04/22 08:32:52;;;;;;;0.80;0.80;;;;;;;8.31;45.03;98912.16;6335911;22;20266;-88
2024/04/22 08:35:18;;;;;;;0.80;0.80;;;;;;;8.97;45.37;98908.63;6335871;22;19991;-87
2024/04/22 08:37:43;;;;;;;0.70;0.70;;;;;;;8.52;45.54;98912.13;6377866;22;20047;-88
2024/04/22 08:40:10;;;;;;;0.77;0.77;;;;;;;7.12;48.92;98927.38;6420481;22;20047;-87
2024/04/22 08:42:37;;;;;;;0.80;0.80;;;;;;;6.88;47.84;98920.94;6336596;22;20014;-87
2024/04/22 08:45:03;;;;;;;0.90;0.90;;;;;;;8.62;46.47;98901.91;6377642;22;19995;-87
2024/04/22 08:47:28;;;;;;;0.80;0.80;;;;;;;7.28;46.50;98912.13;6421104;22;20031;-87
2024/04/22 08:49:54;;;;;;;0.80;0.80;;;;;;;7.35;49.86;98911.59;6375610;22;19995;-91
2024/04/22 08:52:21;;;;;;;0.75;0.75;;;;;;;6.85;48.64;98910.19;6376737;22;19998;-89
2024/04/22 08:54:46;;;;;;;1.00;1.00;;;;;;;7.18;48.72;98901.09;6377589;22;19999;-90
2024/04/22 08:57:12;;;;;;;0.88;0.88;;;;;;;7.91;46.82;98906.09;6421529;22;19999;-89
2024/04/22 08:59:37;;;;;;;0.77;0.77;;;;;;;7.93;47.09;98907.06;6377455;22;20405;-87
2024/04/22 09:02:04;;;;;;;0.80;0.80;;;;;;;7.95;48.65;98899.13;6422850;22;20002;-88
2024/04/22 09:04:30;;;;;;;1.00;1.00;;;;;;;9.44;44.80;98903.25;6339933;22;20037;-88
2024/04/22 09:06:56;;;;;;;0.80;0.80;;;;;;;10.53;42.11;98889.22;6379970;22;19995;-88
2024/04/22 09:09:22;;;;;;;0.80;0.80;;;;;;;10.81;41.98;98893.66;6425250;22;19994;-90
2024/04/22 09:11:52;;;;;;;0.82;0.82;;;;;;;10.83;38.74;98883.97;6338781;22;20011;-90
2024/04/22 09:14:17;;;;;;;0.70;0.70;;;;;;;10.75;41.69;98885.47;6422616;22;20046;-89
2024/04/22 09:16:43;;;;;;;0.70;0.70;;;;;;;11.14;41.14;98887.53;6421449;22;20076;-90
2024/04/22 09:19:08;;;;;;;0.80;0.80;;;;;;;10.90;38.23;98877.94;6422668;22;20045;-89
2024/04/22 09:21:37;;;;;;;0.70;0.70;;;;;;;9.35;41.70;98889.63;6379493;22;20606;-87
2024/04/22 09:24:07;;;;;;;0.60;0.60;;;;;;;10.66;40.30;98885.19;6422230;22;19998;-88
2024/04/22 09:26:35;;;;;;;0.70;0.70;;;;;;;9.65;43.34;98892.47;6423872;22;20002;-88
2024/04/22 09:29:03;;;;;;;0.73;0.73;;;;;;;10.55;42.78;98894.63;6422964;22;20003;-89
2024/04/22 09:31:29;;;;;;;0.60;0.60;;;;;;;9.83;41.36;98884.22;6337873;22;20722;-89
2024/04/22 09:33:56;;;;;;;0.60;0.60;;;;;;;8.92;44.20;98883.59;6378941;22;20421;-88
2024/04/22 09:36:22;;;;;;;;;;;;;;;8.87;43.36;98881.63;6339496;22;20002;-89
2024/04/22 09:38:50;;;;;;;1.00;1.00;;;;;;;8.62;42.73;98885.06;6378599;22;19930;-90
2024/04/22 09:41:18;;;;;;;0.93;0.93;;;;;;;10.74;40.69;98863.22;6422456;22;20077;-90
2024/04/22 09:43:44;;;;;;;0.80;0.80;;;;;;;13.35;36.85;98847.59;6338948;22;19998;-89
2024/04/22 09:46:11;;;;;;;0.80;0.80;;;;;;;14.16;34.88;98849.97;6378227;22;20006;-88
2024/04/22 09:48:36;;;;;;;0.60;0.60;;;;;;;10.99;39.11;98858.63;6378236;22;20369;-89
2024/04/22 09:51:03;;;;;;;0.60;0.60;;;;;;;10.20;40.11;98860.56;6377972;22;20401;-90
2024/04/22 09:53:28;;;;;;;0.80;0.80;;;;;;;11.12;40.08;98863.47;6337191;22;19999;-88
2024/04/22 09:55:58;;;;;;;0.80;0.80;;;;;;;13.42;36.57;98845.94;6338464;22;20030;-89
2024/04/22 09:58:26;;;;;;;0.60;0.60;;;;;;;11.87;37.42;98865.53;6379383;22;19995;-89
2024/04/22 10:00:52;;;;;;;0.60;0.60;;;;;;;12.02;37.80;98860.59;6421725;22;20042;-91
2024/04/22 10:03:18;;;;;;;0.60;0.60;;;;;;;12.14;38.05;98856.44;6378278;22;20070;-89
2024/04/22 10:05:45;;;;;;;0.60;0.60;;;;;;;11.69;38.61;98851.66;6378927;22;20006;-90
2024/04/22 10:08:11;;;;;;;0.60;0.60;;;;;;;10.17;39.52;98867.59;6421532;22;20009;-91
2024/04/22 10:10:40;;;;;;;0.60;0.60;;;;;;;10.07;40.18;98855.72;6338174;22;19995;-90
2024/04/22 10:13:10;;;;;;;0.60;0.60;;;;;;;9.39;42.32;98863.16;6422251;22;20006;-90
2024/04/22 10:15:35;;;;;;;0.63;0.63;;;;;;;9.26;41.76;98858.22;6379056;22;20006;-91
2024/04/22 10:18:13;;;;;;;0.60;0.60;;;;;;;9.07;42.17;98858.41;6378771;22;19998;-90
2024/04/22 10:20:40;;;;;;;0.70;0.70;;;;;;;8.97;42.00;98860.72;6379923;22;20017;-89
2024/04/22 10:23:11;;;;;;;0.80;0.80;;;;;;;8.45;42.07;98856.06;6378627;22;20002;-88
2024/04/22 10:25:37;;;;;;;0.70;0.70;;;;;;;8.93;43.91;98850.81;6338851;22;20003;-91
2024/04/22 10:28:02;;;;;;;0.70;0.70;;;;;;;8.78;41.07;98849.34;6422927;22;20017;-90
2024/04/22 10:30:35;;;;;;;0.80;0.80;;;;;;;8.57;43.41;98852.06;6336430;22;20002;-89
2024/04/22 10:33:01;;;;;;;0.80;0.80;;;;;;;9.14;40.70;98847.13;6337271;22;20055;-90
2024/04/22 10:35:28;;;;;;;0.77;0.77;;;;;;;9.25;42.57;98843.13;6337674;22;20002;-89
2024/04/22 10:37:54;;;;;;;0.80;0.80;;;;;;;9.30;40.97;98836.19;6421278;22;20604;-90
2024/04/22 10:40:19;;;;;;;0.70;0.70;;;;;;;9.83;40.53;98833.59;6421932;22;20041;-91
2024/04/22 10:42:45;;;;;;;0.98;0.98;;;;;;;10.44;40.84;98832.91;6422456;22;20413;-88
2024/04/22 10:45:10;;;;;;;0.90;0.90;;;;;;;12.51;36.69;98828.78;6421005;22;20017;-89
2024/04/22 10:47:36;;;;;;;0.80;0.80;;;;;;;12.57;36.36;98826.25;6378786;22;19998;-88
2024/04/22 10:50:01;;;;;;;0.70;0.70;;;;;;;11.53;38.29;98823.63;6421777;22;20004;-88
2024/04/22 10:52:27;;;;;;;0.60;0.60;;;;;;;11.16;39.89;98822.63;6377624;22;20002;-88
2024/04/22 10:54:52;;;;;;;0.63;0.63;;;;;;;10.96;39.43;98819.38;6421240;22;20019;-90
2024/04/22 10:57:19;;;;;;;0.65;0.65;;;;;;;10.33;40.02;98827.25;6379305;22;20014;-89
2024/04/22 10:59:44;;;;;;;0.70;0.70;;;;;;;9.98;40.79;98826.09;6379108;22;20460;-90
2024/04/22 11:02:10;;;;;;;0.80;0.80;;;;;;;10.10;38.85;98817.56;6379605;22;20042;-89
2024/04/22 11:04:38;;;;;;;0.70;0.70;;;;;;;12.22;36.28;98806.72;6424084;22;19998;-89
2024/04/22 11:07:04;;;;;;;0.70;0.70;;;;;;;11.62;35.41;98812.28;6379860;22;20420;-89
2024/04/22 11:09:32;;;;;;;0.70;0.70;;;;;;;11.62;37.18;98817.63;6379860;22;20002;-90
2024/04/22 11:12:01;;;;;;;0.70;0.70;;;;;;;11.54;38.47;98812.97;6419168;22;20447;-90
2024/04/22 11:14:28;;;;;;;0.70;0.70;;;;;;;11.55;38.70;98808.56;6422557;22;20301;-88
2024/04/22 11:16:57;;;;;;;0.80;0.80;;;;;;;12.32;38.40;98806.94;6379914;22;20242;-90
2024/04/22 11:19:23;;;;;;;0.90;0.90;;;;;;;12.53;33.93;98795.81;6378882;22;19999;-88
2024/04/22 11:21:49;;;;;;;0.80;0.80;;;;;;;15.38;31.90;98779.19;6422501;22;20010;-90
2024/04/22 11:24:14;;;;;;;0.50;0.50;;;;;;;15.17;32.49;98776.22;6379767;22;19998;-89
2024/04/22 11:26:41;;;;;;;0.50;0.50;;;;;;;12.09;35.54;98788.56;6379432;22;20014;-88
2024/04/22 11:29:09;;;;;;;0.60;0.60;;;;;;;11.69;38.36;98799.13;6423395;22;19998;-89
2024/04/22 11:31:36;;;;;;;;;;;;;;;11.35;39.92;98804.41;6379716;22;20055;-87
2024/04/22 11:34:02;;;;;;;0.60;0.60;;;;;;;10.67;40.56;98815.84;6379478;22;19923;-89
2024/04/22 11:36:33;;;;;;;0.60;0.60;;;;;;;10.22;40.08;98812.66;6379349;22;19994;-88
2024/04/22 11:39:11;;;;;;;0.70;0.70;;;;;;;9.73;40.47;98811.06;6379626;22;19998;-88
2024/04/22 11:41:36;;;;;;;0.70;0.70;;;;;;;9.85;42.75;98810.53;6421855;22;20038;-88
2024/04/22 11:44:02;;;;;;;0.60;0.60;;;;;;;9.69;42.38;98810.03;6378938;22;20472;-87
2024/04/22 11:46:27;;;;;;;0.70;0.70;;;;;;;9.87;41.34;98803.47;6379445;22;20010;-89